createdAt,value
2018-09-29T00:00:47.746Z,7.27
2018-09-29T00:03:20.038Z,7.23
2018-09-29T00:05:48.407Z,7.20
2018-09-29T00:08:16.793Z,7.22
2018-09-29T00:10:45.227Z,7.21
2018-09-29T00:13:13.628Z,7.22
2018-09-29T00:15:42.058Z,7.17
2018-09-29T00:18:10.507Z,7.16
2018-09-29T00:20:38.920Z,7.17
2018-09-29T00:23:07.437Z,7.16
2018-09-29T00:25:35.857Z,7.23
2018-09-29T00:28:04.637Z,7.26
2018-09-29T00:30:33.050Z,7.22
2018-09-29T00:33:01.465Z,7.21
2018-09-29T00:35:29.912Z,7.16
2018-09-29T00:37:58.340Z,7.12
2018-09-29T00:40:26.773Z,7.07
2018-09-29T00:42:55.286Z,7.03
2018-09-29T00:45:23.734Z,6.96
2018-09-29T00:47:52.140Z,6.94
2018-09-29T00:50:20.574Z,6.93
2018-09-29T00:52:48.985Z,6.96
2018-09-29T00:55:17.430Z,6.96
2018-09-29T00:57:45.817Z,6.86
2018-09-29T01:00:14.217Z,6.83
2018-09-29T01:02:42.609Z,6.82
2018-09-29T01:05:11.016Z,6.85
2018-09-29T01:07:39.411Z,6.86
2018-09-29T01:10:08.192Z,6.96
2018-09-29T01:12:36.602Z,6.99
2018-09-29T01:15:05.075Z,6.97
2018-09-29T01:17:33.488Z,6.92
2018-09-29T01:20:01.951Z,6.84
2018-09-29T01:22:30.792Z,6.80
2018-09-29T01:24:59.283Z,6.72
2018-09-29T01:27:27.701Z,6.64
2018-09-29T01:29:56.157Z,6.56
2018-09-29T01:32:24.562Z,6.49
2018-09-29T01:34:53.094Z,6.38
2018-09-29T01:37:21.547Z,6.31
2018-09-29T01:39:49.948Z,6.29
2018-09-29T01:42:18.395Z,6.29
2018-09-29T01:44:46.852Z,6.29
2018-09-29T01:47:15.276Z,6.24
2018-09-29T01:49:43.689Z,6.22
2018-09-29T01:52:12.096Z,6.27
2018-09-29T01:54:40.501Z,6.26
2018-09-29T01:57:08.965Z,6.24
2018-09-29T01:59:37.323Z,6.17
2018-09-29T02:02:05.774Z,6.11
2018-09-29T02:04:34.205Z,6.13
2018-09-29T02:07:02.621Z,6.11
2018-09-29T02:09:31.040Z,6.09
2018-09-29T02:11:59.484Z,6.05
2018-09-29T02:14:27.867Z,5.98
2018-09-29T02:16:56.299Z,5.95
2018-09-29T02:19:24.755Z,5.95
2018-09-29T02:21:53.182Z,5.85
2018-09-29T02:24:21.576Z,5.83
2018-09-29T02:26:50.058Z,5.81
2018-09-29T02:31:45.890Z,5.81
2018-09-29T02:34:14.624Z,5.78
2018-09-29T02:36:43.088Z,5.74
2018-09-29T02:39:12.631Z,5.72
2018-09-29T02:41:41.061Z,5.68
2018-09-29T02:44:10.019Z,5.54
2018-09-29T02:46:38.468Z,5.49
2018-09-29T02:49:07.022Z,5.41
2018-09-29T02:51:35.441Z,5.36
2018-09-29T02:54:03.986Z,5.36
2018-09-29T02:56:32.408Z,5.30
2018-09-29T02:59:00.791Z,5.38
2018-09-29T03:01:29.201Z,5.42
2018-09-29T03:03:58.330Z,5.41
2018-09-29T03:06:26.788Z,5.14
2018-09-29T03:08:55.162Z,5.35
2018-09-29T03:11:23.544Z,5.40
2018-09-29T03:13:51.968Z,5.35
2018-09-29T03:16:20.387Z,5.31
2018-09-29T03:18:48.815Z,5.26
2018-09-29T03:21:17.849Z,5.17
2018-09-29T03:23:46.268Z,5.19
2018-09-29T03:26:14.665Z,5.21
2018-09-29T03:28:43.162Z,5.23
2018-09-29T03:31:11.552Z,5.22
2018-09-29T03:33:39.938Z,5.21
2018-09-29T03:36:08.336Z,5.20
2018-09-29T03:38:36.831Z,5.23
2018-09-29T03:41:05.262Z,5.27
2018-09-29T03:43:33.775Z,5.26
2018-09-29T03:46:02.199Z,5.29
2018-09-29T03:48:30.615Z,5.27
2018-09-29T03:50:59.030Z,5.28
2018-09-29T03:53:27.469Z,5.22
2018-09-29T03:55:55.859Z,5.20
2018-09-29T03:58:24.331Z,5.22
2018-09-29T04:00:52.752Z,5.22
2018-09-29T04:03:21.178Z,5.07
2018-09-29T04:05:49.584Z,5.01
2018-09-29T04:08:18.004Z,4.98
2018-09-29T04:10:46.861Z,4.92
2018-09-29T04:13:15.259Z,4.88
2018-09-29T04:15:43.679Z,4.82
2018-09-29T04:18:12.902Z,4.80
2018-09-29T04:20:41.322Z,4.82
2018-09-29T04:23:09.735Z,4.78
2018-09-29T04:25:38.180Z,4.71
2018-09-29T04:28:06.608Z,4.64
2018-09-29T04:30:35.058Z,4.69
2018-09-29T04:33:04.333Z,4.71
2018-09-29T04:35:32.777Z,4.74
2018-09-29T04:38:01.167Z,4.82
2018-09-29T04:40:29.597Z,4.86
2018-09-29T04:42:58.061Z,4.88
2018-09-29T04:45:26.509Z,4.87
2018-09-29T04:47:54.924Z,4.82
2018-09-29T04:50:23.339Z,4.83
2018-09-29T04:52:51.764Z,4.71
2018-09-29T04:55:20.204Z,4.61
2018-09-29T04:57:48.593Z,4.57
2018-09-29T05:00:16.988Z,4.62
2018-09-29T05:02:45.432Z,4.65
2018-09-29T05:05:13.861Z,4.59
2018-09-29T05:07:42.304Z,4.56
2018-09-29T05:10:10.709Z,4.50
2018-09-29T05:12:39.092Z,4.55
2018-09-29T05:15:07.549Z,4.57
2018-09-29T05:17:35.917Z,4.60
2018-09-29T05:20:04.368Z,4.56
2018-09-29T05:22:32.776Z,4.47
2018-09-29T05:25:01.149Z,4.40
2018-09-29T05:27:29.589Z,4.39
2018-09-29T05:29:58.020Z,4.45
2018-09-29T05:32:26.444Z,4.52
2018-09-29T05:34:54.873Z,4.56
2018-09-29T05:37:23.347Z,4.53
2018-09-29T05:39:52.000Z,4.55
2018-09-29T05:42:20.444Z,4.56
2018-09-29T05:44:48.833Z,4.56
2018-09-29T05:47:17.794Z,4.49
2018-09-29T05:49:46.198Z,4.47
2018-09-29T05:52:14.637Z,4.46
2018-09-29T05:54:43.421Z,4.41
2018-09-29T05:57:11.829Z,4.39
2018-09-29T05:59:40.906Z,4.40
2018-09-29T06:02:09.360Z,4.48
2018-09-29T06:04:38.573Z,4.49
2018-09-29T06:07:07.499Z,4.56
2018-09-29T06:09:35.856Z,4.58
2018-09-29T06:12:04.875Z,4.58
2018-09-29T06:14:33.260Z,4.63
2018-09-29T06:17:01.728Z,4.64
2018-09-29T06:19:30.185Z,4.70
2018-09-29T06:21:58.621Z,4.72
2018-09-29T06:24:27.043Z,4.80
2018-09-29T06:26:55.599Z,4.86
2018-09-29T06:29:24.071Z,4.95
2018-09-29T06:31:52.603Z,5.00
2018-09-29T06:34:21.062Z,5.03
2018-09-29T06:36:49.473Z,5.06
2018-09-29T06:39:17.957Z,5.11
2018-09-29T06:41:46.444Z,5.08
2018-09-29T06:44:14.872Z,5.10
2018-09-29T06:46:43.309Z,5.17
2018-09-29T06:49:11.760Z,5.25
2018-09-29T06:51:40.232Z,5.32
2018-09-29T06:54:08.608Z,5.39
2018-09-29T06:56:37.051Z,5.51
2018-09-29T06:59:05.550Z,5.58
2018-09-29T07:01:33.979Z,5.65
2018-09-29T07:04:02.439Z,5.70
2018-09-29T07:06:30.913Z,5.79
2018-09-29T07:08:59.360Z,5.88
2018-09-29T07:11:27.902Z,5.91
2018-09-29T07:13:56.461Z,5.97
2018-09-29T07:16:24.928Z,6.03
2018-09-29T07:18:53.433Z,6.10
2018-09-29T07:21:21.882Z,6.18
2018-09-29T07:23:50.301Z,6.23
2018-09-29T07:26:18.736Z,6.26
2018-09-29T07:28:47.221Z,6.31
2018-09-29T07:31:15.768Z,6.36
2018-09-29T07:33:44.191Z,6.42
2018-09-29T07:38:53.799Z,6.52
2018-09-29T07:41:22.384Z,6.56
2018-09-29T07:43:50.770Z,6.61
2018-09-29T07:46:19.289Z,6.67
2018-09-29T07:48:47.644Z,6.72
2018-09-29T07:51:16.163Z,6.75
2018-09-29T07:53:44.610Z,6.83
2018-09-29T07:56:13.024Z,6.90
2018-09-29T07:58:41.493Z,6.96
2018-09-29T08:01:10.008Z,7.01
2018-09-29T08:03:38.433Z,7.05
2018-09-29T08:06:06.861Z,7.12
2018-09-29T08:08:35.948Z,7.20
2018-09-29T08:11:04.574Z,7.24
2018-09-29T08:13:33.065Z,7.31
2018-09-29T08:16:01.526Z,7.36
2018-09-29T08:18:29.931Z,7.45
2018-09-29T08:20:58.439Z,7.50
2018-09-29T08:23:26.856Z,7.53
2018-09-29T08:25:55.399Z,7.53
2018-09-29T08:28:23.836Z,7.64
2018-09-29T08:30:52.335Z,7.65
2018-09-29T08:33:20.761Z,7.67
2018-09-29T08:35:49.340Z,7.72
2018-09-29T08:38:17.803Z,7.75
2018-09-29T08:40:46.408Z,7.80
2018-09-29T08:43:14.833Z,7.84
2018-09-29T08:45:43.284Z,7.92
2018-09-29T08:48:11.723Z,7.95
2018-09-29T08:50:40.238Z,8.03
2018-09-29T08:53:08.733Z,8.09
2018-09-29T08:55:37.227Z,8.14
2018-09-29T08:58:05.835Z,8.17
2018-09-29T09:00:34.312Z,8.21
2018-09-29T09:03:02.760Z,8.30
2018-09-29T09:05:31.188Z,8.39
2018-09-29T09:08:00.032Z,8.47
2018-09-29T09:10:28.483Z,8.50
2018-09-29T09:12:56.917Z,8.49
2018-09-29T09:15:25.407Z,8.49
2018-09-29T09:17:53.833Z,8.50
2018-09-29T09:20:22.306Z,8.57
2018-09-29T09:22:50.807Z,8.60
2018-09-29T09:25:19.293Z,8.64
2018-09-29T09:27:47.773Z,8.66
2018-09-29T09:30:16.358Z,8.69
2018-09-29T09:32:44.853Z,8.68
2018-09-29T09:35:13.297Z,8.59
2018-09-29T09:37:41.795Z,8.73
2018-09-29T09:40:10.173Z,8.72
2018-09-29T09:42:38.639Z,9.01
2018-09-29T09:45:08.854Z,9.13
2018-09-29T09:47:37.352Z,9.11
2018-09-29T09:50:05.878Z,9.12
2018-09-29T09:52:34.314Z,9.10
2018-09-29T09:55:02.906Z,9.13
2018-09-29T09:57:31.389Z,9.16
2018-09-29T09:59:59.973Z,9.15
2018-09-29T10:03:33.102Z,9.12
2018-09-29T10:06:01.665Z,9.35
2018-09-29T10:08:30.256Z,9.54
2018-09-29T10:10:58.744Z,10.01
2018-09-29T10:13:27.160Z,9.95
2018-09-29T10:15:55.637Z,9.86
2018-09-29T10:18:24.132Z,9.72
2018-09-29T10:20:52.622Z,9.73
2018-09-29T10:23:21.080Z,9.67
2018-09-29T10:25:49.582Z,9.61
2018-09-29T10:28:18.039Z,9.59
2018-09-29T10:30:46.490Z,9.62
2018-09-29T10:33:15.005Z,9.80
2018-09-29T10:35:43.428Z,9.72
2018-09-29T10:38:11.874Z,9.68
2018-09-29T10:40:40.389Z,9.68
2018-09-29T10:43:08.896Z,9.61
2018-09-29T10:45:37.320Z,9.57
2018-09-29T10:48:05.863Z,9.56
2018-09-29T10:50:34.334Z,9.74
2018-09-29T10:53:02.949Z,9.97
2018-09-29T10:55:31.473Z,10.03
2018-09-29T10:57:59.969Z,9.99
2018-09-29T11:00:28.418Z,9.89
2018-09-29T11:02:56.909Z,9.85
2018-09-29T11:05:25.387Z,9.93
2018-09-29T11:07:53.868Z,10.10
2018-09-29T11:10:22.347Z,10.29
2018-09-29T11:12:50.831Z,10.38
2018-09-29T11:15:19.301Z,10.35
2018-09-29T11:17:47.746Z,10.32
2018-09-29T11:20:16.186Z,10.32
2018-09-29T11:22:44.916Z,10.32
2018-09-29T11:25:13.380Z,10.27
2018-09-29T11:27:41.853Z,10.23
2018-09-29T11:30:10.424Z,10.23
2018-09-29T11:32:38.912Z,10.23
2018-09-29T11:35:07.568Z,10.21
2018-09-29T11:37:36.110Z,10.22
2018-09-29T11:40:04.611Z,10.24
2018-09-29T11:42:33.094Z,10.32
2018-09-29T11:45:01.548Z,10.44
2018-09-29T11:47:30.046Z,10.56
2018-09-29T11:49:58.648Z,10.54
2018-09-29T11:52:27.104Z,10.41
2018-09-29T11:54:55.538Z,10.37
2018-09-29T11:57:24.015Z,10.37
2018-09-29T11:59:52.463Z,10.53
2018-09-29T12:02:21.092Z,10.70
2018-09-29T12:04:49.785Z,10.80
2018-09-29T12:07:18.363Z,10.71
2018-09-29T12:09:46.726Z,10.78
2018-09-29T12:12:15.384Z,10.99
2018-09-29T12:14:43.838Z,10.95
2018-09-29T12:17:12.317Z,10.91
2018-09-29T12:19:40.753Z,10.89
2018-09-29T12:22:09.201Z,11.26
2018-09-29T12:24:37.656Z,11.29
2018-09-29T12:27:06.128Z,11.52
2018-09-29T12:29:34.561Z,11.56
2018-09-29T12:32:03.068Z,11.83
2018-09-29T12:34:31.533Z,12.32
2018-09-29T12:37:00.125Z,12.60
2018-09-29T12:39:28.457Z,12.83
2018-09-29T12:41:56.976Z,12.85
2018-09-29T12:44:25.459Z,12.79
2018-09-29T12:46:53.873Z,12.73
2018-09-29T12:49:22.502Z,12.97
2018-09-29T12:51:51.011Z,13.40
2018-09-29T12:54:19.422Z,14.09
2018-09-29T12:56:47.916Z,14.50
2018-09-29T12:59:16.776Z,14.76
2018-09-29T13:01:45.227Z,15.08
2018-09-29T13:04:13.719Z,15.04
2018-09-29T13:06:42.187Z,15.23
2018-09-29T13:09:10.611Z,15.23
2018-09-29T13:11:39.191Z,15.43
2018-09-29T13:14:07.804Z,15.40
2018-09-29T13:16:36.303Z,15.22
2018-09-29T13:19:04.807Z,14.97
2018-09-29T13:21:33.269Z,14.88
2018-09-29T13:24:01.722Z,14.69
2018-09-29T13:26:30.208Z,14.40
2018-09-29T13:28:58.597Z,14.20
2018-09-29T13:31:28.106Z,13.98
2018-09-29T13:33:56.548Z,13.74
2018-09-29T13:36:24.968Z,13.69
2018-09-29T13:38:53.436Z,13.51
2018-09-29T13:41:21.927Z,13.28
2018-09-29T13:43:50.413Z,13.29
2018-09-29T13:46:18.844Z,13.24
2018-09-29T13:48:47.307Z,13.31
2018-09-29T13:51:15.796Z,13.23
2018-09-29T13:53:44.311Z,13.15
2018-09-29T13:56:12.663Z,13.12
2018-09-29T13:58:41.152Z,13.00
2018-09-29T14:01:09.576Z,13.11
2018-09-29T14:03:37.987Z,13.24
2018-09-29T14:06:06.609Z,13.27
2018-09-29T14:08:35.076Z,13.30
2018-09-29T14:11:03.450Z,13.12
2018-09-29T14:13:31.867Z,13.00
2018-09-29T14:16:00.498Z,12.90
2018-09-29T14:18:28.966Z,12.82
2018-09-29T14:20:57.433Z,13.05
2018-09-29T14:23:25.842Z,13.08
2018-09-29T14:25:54.293Z,13.14
2018-09-29T14:28:22.795Z,13.02
2018-09-29T14:30:51.315Z,13.02
2018-09-29T14:33:19.744Z,12.87
2018-09-29T14:35:48.186Z,12.74
2018-09-29T14:38:16.536Z,12.69
2018-09-29T14:40:45.013Z,12.76
2018-09-29T14:43:13.446Z,12.75
2018-09-29T14:45:41.873Z,12.85
2018-09-29T14:48:10.316Z,12.83
2018-09-29T14:50:38.701Z,12.79
2018-09-29T14:53:07.199Z,12.72
2018-09-29T14:55:35.593Z,12.72
2018-09-29T14:58:04.223Z,12.80
2018-09-29T15:00:32.528Z,12.74
2018-09-29T15:03:01.000Z,12.61
2018-09-29T15:05:29.468Z,12.49
2018-09-29T15:07:57.968Z,12.44
2018-09-29T15:10:26.521Z,12.40
2018-09-29T15:12:55.004Z,12.46
2018-09-29T15:15:24.109Z,12.56
2018-09-29T15:17:52.608Z,12.55
2018-09-29T15:20:21.123Z,12.48
2018-09-29T15:22:49.525Z,12.55
2018-09-29T15:25:17.977Z,12.62
2018-09-29T15:27:46.436Z,12.55
2018-09-29T15:30:14.896Z,12.42
2018-09-29T15:32:43.313Z,12.30
2018-09-29T15:35:11.811Z,12.27
2018-09-29T15:37:40.237Z,12.48
2018-09-29T15:40:08.752Z,12.42
2018-09-29T15:42:37.289Z,12.38
2018-09-29T15:45:07.181Z,12.39
2018-09-29T15:47:35.561Z,12.61
2018-09-29T15:50:04.051Z,12.79
2018-09-29T15:52:32.443Z,12.80
2018-09-29T15:55:00.907Z,12.94
2018-09-29T15:57:29.305Z,12.94
2018-09-29T15:59:57.706Z,12.93
2018-09-29T16:02:26.715Z,12.85
2018-09-29T16:04:55.220Z,12.99
2018-09-29T16:07:24.051Z,13.11
2018-09-29T16:09:52.632Z,13.06
2018-09-29T16:12:21.037Z,13.03
2018-09-29T16:14:49.585Z,13.01
2018-09-29T16:17:18.013Z,12.88
2018-09-29T16:19:46.705Z,12.77
2018-09-29T16:22:15.112Z,12.64
2018-09-29T16:24:43.587Z,12.60
2018-09-29T16:27:12.004Z,12.51
2018-09-29T16:29:40.468Z,12.39
2018-09-29T16:32:09.053Z,12.32
2018-09-29T16:34:37.415Z,12.33
2018-09-29T16:37:05.868Z,12.24
2018-09-29T16:39:34.354Z,12.19
2018-09-29T16:42:02.840Z,12.10
2018-09-29T16:44:31.276Z,12.16
2018-09-29T16:46:59.753Z,12.20
2018-09-29T16:49:28.265Z,12.22
2018-09-29T16:51:56.815Z,12.17
2018-09-29T16:54:25.259Z,12.04
2018-09-29T16:56:53.689Z,11.87
2018-09-29T16:59:22.156Z,11.73
2018-09-29T17:01:50.663Z,11.60
2018-09-29T17:04:19.171Z,11.53
2018-09-29T17:06:47.627Z,11.48
2018-09-29T17:09:16.049Z,11.41
2018-09-29T17:11:45.229Z,11.32
2018-09-29T17:14:13.789Z,11.27
2018-09-29T17:16:42.282Z,11.20
2018-09-29T17:19:10.697Z,11.13
2018-09-29T17:21:39.155Z,11.08
2018-09-29T17:24:08.050Z,11.03
2018-09-29T17:26:36.524Z,10.94
2018-09-29T17:29:05.136Z,10.87
2018-09-29T17:31:33.604Z,10.80
2018-09-29T17:34:02.068Z,10.69
2018-09-29T17:36:30.473Z,10.62
2018-09-29T17:38:59.019Z,10.55
2018-09-29T17:41:27.481Z,10.53
2018-09-29T17:43:56.018Z,10.52
2018-09-29T17:46:24.468Z,10.50
2018-09-29T17:48:52.965Z,10.45
2018-09-29T17:51:21.422Z,10.41
2018-09-29T17:53:49.951Z,10.34
2018-09-29T17:56:18.407Z,10.30
2018-09-29T17:58:46.903Z,10.22
2018-09-29T18:01:15.285Z,10.14
2018-09-29T18:03:43.706Z,10.07
2018-09-29T18:06:12.153Z,9.99
2018-09-29T18:08:40.627Z,9.93
2018-09-29T18:11:09.083Z,9.90
2018-09-29T18:13:37.628Z,9.88
2018-09-29T18:16:06.263Z,9.85
2018-09-29T18:18:34.994Z,9.80
2018-09-29T18:21:03.481Z,9.72
2018-09-29T18:23:31.924Z,9.62
2018-09-29T18:26:04.082Z,9.60
2018-09-29T18:28:32.672Z,9.60
2018-09-29T18:31:01.292Z,9.62
2018-09-29T18:33:29.812Z,9.57
2018-09-29T18:35:58.400Z,9.56
2018-09-29T18:38:26.824Z,9.52
2018-09-29T18:40:55.307Z,9.43
2018-09-29T18:43:23.747Z,9.35
2018-09-29T18:45:52.244Z,9.29
2018-09-29T18:48:20.770Z,9.24
2018-09-29T18:50:49.205Z,9.24
2018-09-29T18:53:20.537Z,9.24
2018-09-29T18:55:48.973Z,9.19
2018-09-29T18:58:17.418Z,9.10
2018-09-29T19:00:45.853Z,9.05
2018-09-29T19:03:14.261Z,9.00
2018-09-29T19:05:42.697Z,8.97
2018-09-29T19:08:11.227Z,8.98
2018-09-29T19:10:40.472Z,8.97
2018-09-29T19:13:09.027Z,8.94
2018-09-29T19:15:37.482Z,8.86
2018-09-29T19:18:05.988Z,8.84
2018-09-29T19:20:34.485Z,8.74
2018-09-29T19:23:02.906Z,8.63
2018-09-29T19:25:31.405Z,8.65
2018-09-29T19:27:59.844Z,8.66
2018-09-29T19:30:28.736Z,8.65
2018-09-29T19:32:57.206Z,8.64
2018-09-29T19:35:25.639Z,8.57
2018-09-29T19:37:54.117Z,8.49
2018-09-29T19:40:22.547Z,8.48
2018-09-29T19:42:50.994Z,8.51
2018-09-29T19:45:19.533Z,8.50
2018-09-29T19:47:47.971Z,8.52
2018-09-29T19:50:16.479Z,8.50
2018-09-29T19:52:44.968Z,8.48
2018-09-29T19:55:13.460Z,8.41
2018-09-29T19:57:42.060Z,8.42
2018-09-29T20:00:10.603Z,8.47
2018-09-29T20:02:39.139Z,8.47
2018-09-29T20:05:07.729Z,8.40
2018-09-29T20:07:36.711Z,8.35
2018-09-29T20:10:05.488Z,8.30
2018-09-29T20:12:34.077Z,8.34
2018-09-29T20:15:02.477Z,8.35
2018-09-29T20:17:31.028Z,8.39
2018-09-29T20:19:59.459Z,8.41
2018-09-29T20:22:27.904Z,8.35
2018-09-29T20:24:56.336Z,8.35
2018-09-29T20:27:24.788Z,8.32
2018-09-29T20:29:53.257Z,8.31
2018-09-29T20:32:21.767Z,8.31
2018-09-29T20:34:50.314Z,8.28
2018-09-29T20:37:18.755Z,8.27
2018-09-29T20:39:47.163Z,8.23
2018-09-29T20:42:15.629Z,8.24
2018-09-29T20:44:44.597Z,8.25
2018-09-29T20:47:13.070Z,8.24
2018-09-29T20:49:41.592Z,8.16
2018-09-29T20:52:10.033Z,8.17
2018-09-29T20:54:38.537Z,8.17
2018-09-29T20:57:07.072Z,8.18
2018-09-29T20:59:35.545Z,8.14
2018-09-29T21:02:04.000Z,8.10
2018-09-29T21:04:32.465Z,8.09
2018-09-29T21:07:00.906Z,8.05
2018-09-29T21:09:32.240Z,6.91
2018-09-29T21:12:08.425Z,8.05
2018-09-29T21:14:36.916Z,8.02
2018-09-29T21:17:05.557Z,8.03
2018-09-29T21:19:34.032Z,8.01
2018-09-29T21:22:02.549Z,8.01
2018-09-29T21:24:31.041Z,8.04
2018-09-29T21:26:59.459Z,8.05
2018-09-29T21:29:27.892Z,8.05
2018-09-29T21:31:56.502Z,8.02
2018-09-29T21:34:24.977Z,8.01
2018-09-29T21:36:53.429Z,8.00
2018-09-29T21:39:21.917Z,8.04
2018-09-29T21:41:50.313Z,8.04
2018-09-29T21:44:18.774Z,8.03
2018-09-29T21:46:47.216Z,7.97
2018-09-29T21:49:15.654Z,7.94
2018-09-29T21:51:44.258Z,7.96
2018-09-29T21:54:12.973Z,7.99
2018-09-29T21:56:41.439Z,7.99
2018-09-29T21:59:09.901Z,7.97
2018-09-29T22:01:38.368Z,7.94
2018-09-29T22:04:07.052Z,7.96
2018-09-29T22:06:35.477Z,7.95
2018-09-29T22:09:04.896Z,7.88
2018-09-29T22:11:33.344Z,7.85
2018-09-29T22:14:01.768Z,7.79
2018-09-29T22:16:30.418Z,7.70
2018-09-29T22:18:59.345Z,7.68
2018-09-29T22:21:27.825Z,7.68
2018-09-29T22:23:56.417Z,7.62
2018-09-29T22:26:24.830Z,7.59
2018-09-29T22:28:53.268Z,7.54
2018-09-29T22:31:21.730Z,7.50
2018-09-29T22:33:50.167Z,7.48
2018-09-29T22:36:18.636Z,7.41
2018-09-29T22:38:47.128Z,7.37
2018-09-29T22:41:15.553Z,7.34
2018-09-29T22:43:43.965Z,7.32
2018-09-29T22:46:12.434Z,7.29
2018-09-29T22:48:40.832Z,7.28
2018-09-29T22:51:09.322Z,7.25
2018-09-29T22:53:37.848Z,7.24
2018-09-29T22:56:06.364Z,7.22
2018-09-29T22:58:34.773Z,7.19
2018-09-29T23:01:03.548Z,7.17
2018-09-29T23:03:32.021Z,7.13
2018-09-29T23:06:00.668Z,7.11
2018-09-29T23:08:29.098Z,7.12
2018-09-29T23:10:57.861Z,7.06
2018-09-29T23:13:26.331Z,6.94
2018-09-29T23:15:54.759Z,6.84
2018-09-29T23:18:23.417Z,6.82
2018-09-29T23:20:51.945Z,6.83
2018-09-29T23:23:20.562Z,6.85
2018-09-29T23:25:48.953Z,6.83
2018-09-29T23:28:17.652Z,6.80
2018-09-29T23:30:46.130Z,6.77
2018-09-29T23:33:14.570Z,6.75
2018-09-29T23:35:43.010Z,6.74
2018-09-29T23:38:11.408Z,6.77
2018-09-29T23:40:39.870Z,6.76
2018-09-29T23:43:08.305Z,6.72
2018-09-29T23:45:36.764Z,6.70
2018-09-29T23:48:05.190Z,6.64
2018-09-29T23:50:33.562Z,6.64
2018-09-29T23:53:02.036Z,6.61
2018-09-29T23:55:30.440Z,6.57
2018-09-29T23:57:58.889Z,6.53
